sensor_id;sensor_type;location;lat;lon;timestamp;P1;durP1;ratioP1;P2;durP2;ratioP2
8885;SDS011;4479;51.162;13.906;2024-01-27T00:09:10;5.10;;;1.20;;
8885;SDS011;4479;51.162;13.906;2024-01-27T00:19:13;2.23;;;1.03;;
8885;SDS011;4479;51.162;13.906;2024-01-27T00:29:16;3.00;;;1.10;;
8885;SDS011;4479;51.162;13.906;2024-01-27T00:39:19;2.03;;;0.80;;
8885;SDS011;4479;51.162;13.906;2024-01-27T00:49:22;4.97;;;1.10;;
8885;SDS011;4479;51.162;13.906;2024-01-27T00:59:26;4.67;;;1.10;;
8885;SDS011;4479;51.162;13.906;2024-01-27T01:09:28;5.00;;;0.87;;
8885;SDS011;4479;51.162;13.906;2024-01-27T01:19:32;3.10;;;0.80;;
8885;SDS011;4479;51.162;13.906;2024-01-27T01:29:33;3.23;;;0.87;;
8885;SDS011;4479;51.162;13.906;2024-01-27T01:39:37;3.17;;;0.80;;
8885;SDS011;4479;51.162;13.906;2024-01-27T01:49:39;4.60;;;1.20;;
8885;SDS011;4479;51.162;13.906;2024-01-27T01:59:43;6.50;;;0.93;;
8885;SDS011;4479;51.162;13.906;2024-01-27T02:09:45;3.50;;;1.00;;
8885;SDS011;4479;51.162;13.906;2024-01-27T02:19:49;5.93;;;1.23;;
8885;SDS011;4479;51.162;13.906;2024-01-27T02:29:53;3.53;;;1.10;;
8885;SDS011;4479;51.162;13.906;2024-01-27T02:39:54;7.40;;;1.13;;
8885;SDS011;4479;51.162;13.906;2024-01-27T02:49:58;4.37;;;1.20;;
8885;SDS011;4479;51.162;13.906;2024-01-27T03:00:00;2.40;;;0.93;;
8885;SDS011;4479;51.162;13.906;2024-01-27T03:10:05;2.20;;;1.00;;
8885;SDS011;4479;51.162;13.906;2024-01-27T03:20:09;4.03;;;1.10;;
8885;SDS011;4479;51.162;13.906;2024-01-27T03:30:13;5.30;;;1.00;;
8885;SDS011;4479;51.162;13.906;2024-01-27T03:40:15;3.40;;;1.10;;
8885;SDS011;4479;51.162;13.906;2024-01-27T03:50:19;5.27;;;1.10;;
8885;SDS011;4479;51.162;13.906;2024-01-27T04:00:21;4.30;;;1.33;;
8885;SDS011;4479;51.162;13.906;2024-01-27T04:10:25;3.80;;;1.33;;
8885;SDS011;4479;51.162;13.906;2024-01-27T04:20:27;7.17;;;1.40;;
8885;SDS011;4479;51.162;13.906;2024-01-27T04:30:31;7.43;;;3.30;;
8885;SDS011;4479;51.162;13.906;2024-01-27T04:40:33;11.83;;;3.60;;
8885;SDS011;4479;51.162;13.906;2024-01-27T04:50:37;14.00;;;5.83;;
8885;SDS011;4479;51.162;13.906;2024-01-27T05:00:39;9.67;;;2.93;;
8885;SDS011;4479;51.162;13.906;2024-01-27T05:10:42;5.77;;;2.20;;
8885;SDS011;4479;51.162;13.906;2024-01-27T05:20:44;5.10;;;1.30;;
8885;SDS011;4479;51.162;13.906;2024-01-27T05:30:48;3.73;;;1.27;;
8885;SDS011;4479;51.162;13.906;2024-01-27T05:40:50;5.27;;;1.20;;
8885;SDS011;4479;51.162;13.906;2024-01-27T05:50:57;4.50;;;1.00;;
8885;SDS011;4479;51.162;13.906;2024-01-27T06:01:01;3.63;;;1.03;;
8885;SDS011;4479;51.162;13.906;2024-01-27T06:11:04;4.70;;;1.17;;
8885;SDS011;4479;51.162;13.906;2024-01-27T06:21:06;6.63;;;1.30;;
8885;SDS011;4479;51.162;13.906;2024-01-27T06:31:10;3.60;;;0.90;;
8885;SDS011;4479;51.162;13.906;2024-01-27T06:41:12;6.63;;;1.10;;
8885;SDS011;4479;51.162;13.906;2024-01-27T06:51:15;4.97;;;1.30;;
8885;SDS011;4479;51.162;13.906;2024-01-27T07:01:17;3.47;;;0.97;;
8885;SDS011;4479;51.162;13.906;2024-01-27T07:11:21;5.50;;;1.40;;
8885;SDS011;4479;51.162;13.906;2024-01-27T07:21:23;2.60;;;1.33;;
8885;SDS011;4479;51.162;13.906;2024-01-27T07:31:28;8.00;;;1.57;;
8885;SDS011;4479;51.162;13.906;2024-01-27T07:41:31;7.63;;;2.30;;
8885;SDS011;4479;51.162;13.906;2024-01-27T07:51:35;6.17;;;1.70;;
8885;SDS011;4479;51.162;13.906;2024-01-27T08:01:37;5.00;;;1.77;;
8885;SDS011;4479;51.162;13.906;2024-01-27T08:11:40;5.60;;;1.43;;
8885;SDS011;4479;51.162;13.906;2024-01-27T08:21:42;5.97;;;1.60;;
8885;SDS011;4479;51.162;13.906;2024-01-27T08:31:46;4.43;;;1.30;;
8885;SDS011;4479;51.162;13.906;2024-01-27T08:41:48;7.87;;;2.03;;
8885;SDS011;4479;51.162;13.906;2024-01-27T08:51:52;5.83;;;2.07;;
8885;SDS011;4479;51.162;13.906;2024-01-27T09:01:55;8.63;;;1.90;;
8885;SDS011;4479;51.162;13.906;2024-01-27T09:11:58;5.00;;;1.80;;
8885;SDS011;4479;51.162;13.906;2024-01-27T09:22:00;5.57;;;1.60;;
8885;SDS011;4479;51.162;13.906;2024-01-27T09:32:04;6.47;;;1.70;;
8885;SDS011;4479;51.162;13.906;2024-01-27T09:42:07;5.83;;;1.70;;
8885;SDS011;4479;51.162;13.906;2024-01-27T09:52:11;7.27;;;3.70;;
8885;SDS011;4479;51.162;13.906;2024-01-27T10:02:13;11.27;;;3.13;;
8885;SDS011;4479;51.162;13.906;2024-01-27T10:12:20;12.10;;;5.40;;
8885;SDS011;4479;51.162;13.906;2024-01-27T10:22:22;8.10;;;3.23;;
8885;SDS011;4479;51.162;13.906;2024-01-27T10:32:26;7.03;;;2.40;;
8885;SDS011;4479;51.162;13.906;2024-01-27T10:42:28;7.50;;;2.40;;
8885;SDS011;4479;51.162;13.906;2024-01-27T10:52:32;8.03;;;2.30;;
8885;SDS011;4479;51.162;13.906;2024-01-27T11:02:35;7.83;;;3.47;;
8885;SDS011;4479;51.162;13.906;2024-01-27T11:12:40;9.40;;;2.50;;
8885;SDS011;4479;51.162;13.906;2024-01-27T11:22:42;9.57;;;2.83;;
8885;SDS011;4479;51.162;13.906;2024-01-27T11:32:46;7.43;;;2.83;;
8885;SDS011;4479;51.162;13.906;2024-01-27T11:42:53;6.70;;;2.80;;
8885;SDS011;4479;51.162;13.906;2024-01-27T11:52:58;8.07;;;2.30;;
8885;SDS011;4479;51.162;13.906;2024-01-27T12:03:00;7.77;;;3.40;;
8885;SDS011;4479;51.162;13.906;2024-01-27T12:13:03;6.63;;;2.30;;
8885;SDS011;4479;51.162;13.906;2024-01-27T12:23:06;9.47;;;2.37;;
8885;SDS011;4479;51.162;13.906;2024-01-27T12:33:10;7.17;;;2.13;;
8885;SDS011;4479;51.162;13.906;2024-01-27T12:43:13;5.60;;;1.90;;
8885;SDS011;4479;51.162;13.906;2024-01-27T12:53:17;8.17;;;2.00;;
8885;SDS011;4479;51.162;13.906;2024-01-27T13:03:19;8.53;;;1.93;;
8885;SDS011;4479;51.162;13.906;2024-01-27T13:13:23;9.37;;;3.43;;
8885;SDS011;4479;51.162;13.906;2024-01-27T13:23:25;5.37;;;2.13;;
8885;SDS011;4479;51.162;13.906;2024-01-27T13:33:29;5.03;;;1.83;;
8885;SDS011;4479;51.162;13.906;2024-01-27T13:43:32;4.83;;;1.70;;
8885;SDS011;4479;51.162;13.906;2024-01-27T13:53:36;5.97;;;1.90;;
8885;SDS011;4479;51.162;13.906;2024-01-27T14:03:38;6.33;;;1.80;;
8885;SDS011;4479;51.162;13.906;2024-01-27T14:13:41;6.57;;;1.70;;
8885;SDS011;4479;51.162;13.906;2024-01-27T14:23:44;5.57;;;1.70;;
8885;SDS011;4479;51.162;13.906;2024-01-27T14:33:47;6.83;;;2.17;;
8885;SDS011;4479;51.162;13.906;2024-01-27T14:43:50;6.63;;;2.17;;
8885;SDS011;4479;51.162;13.906;2024-01-27T14:53:53;4.20;;;1.70;;
8885;SDS011;4479;51.162;13.906;2024-01-27T15:03:56;7.70;;;2.20;;
8885;SDS011;4479;51.162;13.906;2024-01-27T15:14:02;7.90;;;1.80;;
8885;SDS011;4479;51.162;13.906;2024-01-27T15:24:04;5.80;;;2.00;;
8885;SDS011;4479;51.162;13.906;2024-01-27T15:34:08;7.47;;;2.20;;
8885;SDS011;4479;51.162;13.906;2024-01-27T15:44:10;6.33;;;2.17;;
8885;SDS011;4479;51.162;13.906;2024-01-27T15:54:13;4.63;;;2.20;;
8885;SDS011;4479;51.162;13.906;2024-01-27T16:04:18;5.00;;;1.90;;
8885;SDS011;4479;51.162;13.906;2024-01-27T16:14:21;12.97;;;5.13;;
8885;SDS011;4479;51.162;13.906;2024-01-27T16:24:24;7.67;;;2.63;;
8885;SDS011;4479;51.162;13.906;2024-01-27T16:34:27;4.27;;;2.03;;
8885;SDS011;4479;51.162;13.906;2024-01-27T16:44:30;6.33;;;2.10;;
8885;SDS011;4479;51.162;13.906;2024-01-27T16:54:34;6.33;;;1.70;;
8885;SDS011;4479;51.162;13.906;2024-01-27T17:04:35;5.10;;;2.33;;
8885;SDS011;4479;51.162;13.906;2024-01-27T17:14:40;4.83;;;2.57;;
8885;SDS011;4479;51.162;13.906;2024-01-27T17:24:42;11.40;;;4.60;;
8885;SDS011;4479;51.162;13.906;2024-01-27T17:34:46;5.50;;;2.97;;
8885;SDS011;4479;51.162;13.906;2024-01-27T17:44:49;10.47;;;3.43;;
8885;SDS011;4479;51.162;13.906;2024-01-27T17:54:52;12.20;;;5.80;;
8885;SDS011;4479;51.162;13.906;2024-01-27T18:04:55;9.70;;;4.23;;
8885;SDS011;4479;51.162;13.906;2024-01-27T18:14:58;5.73;;;3.37;;
8885;SDS011;4479;51.162;13.906;2024-01-27T18:25:00;6.90;;;2.53;;
8885;SDS011;4479;51.162;13.906;2024-01-27T18:35:07;7.20;;;2.80;;
8885;SDS011;4479;51.162;13.906;2024-01-27T18:45:09;4.50;;;2.50;;
8885;SDS011;4479;51.162;13.906;2024-01-27T18:55:13;6.80;;;2.57;;
8885;SDS011;4479;51.162;13.906;2024-01-27T19:05:15;8.13;;;2.87;;
8885;SDS011;4479;51.162;13.906;2024-01-27T19:15:18;5.00;;;2.00;;
8885;SDS011;4479;51.162;13.906;2024-01-27T19:25:20;3.80;;;1.93;;
8885;SDS011;4479;51.162;13.906;2024-01-27T19:35:24;7.33;;;2.60;;
8885;SDS011;4479;51.162;13.906;2024-01-27T19:45:26;5.00;;;2.60;;
8885;SDS011;4479;51.162;13.906;2024-01-27T19:55:30;9.27;;;3.10;;
8885;SDS011;4479;51.162;13.906;2024-01-27T20:05:32;8.43;;;2.73;;
8885;SDS011;4479;51.162;13.906;2024-01-27T20:15:35;8.43;;;3.40;;
8885;SDS011;4479;51.162;13.906;2024-01-27T20:25:37;11.40;;;3.50;;
8885;SDS011;4479;51.162;13.906;2024-01-27T20:35:41;6.97;;;2.83;;
8885;SDS011;4479;51.162;13.906;2024-01-27T20:45:43;9.10;;;2.60;;
8885;SDS011;4479;51.162;13.906;2024-01-27T20:55:47;6.97;;;3.00;;
8885;SDS011;4479;51.162;13.906;2024-01-27T21:05:50;6.20;;;2.80;;
8885;SDS011;4479;51.162;13.906;2024-01-27T21:15:54;8.73;;;3.70;;
8885;SDS011;4479;51.162;13.906;2024-01-27T21:25:56;8.27;;;4.00;;
8885;SDS011;4479;51.162;13.906;2024-01-27T21:36:00;9.83;;;4.57;;
8885;SDS011;4479;51.162;13.906;2024-01-27T21:46:03;8.57;;;4.23;;
8885;SDS011;4479;51.162;13.906;2024-01-27T21:56:07;8.57;;;3.73;;
8885;SDS011;4479;51.162;13.906;2024-01-27T22:06:11;8.20;;;3.87;;
8885;SDS011;4479;51.162;13.906;2024-01-27T22:16:15;8.20;;;4.00;;
8885;SDS011;4479;51.162;13.906;2024-01-27T22:26:17;9.10;;;3.63;;
8885;SDS011;4479;51.162;13.906;2024-01-27T22:36:21;5.53;;;3.00;;
8885;SDS011;4479;51.162;13.906;2024-01-27T22:46:23;7.37;;;2.70;;
8885;SDS011;4479;51.162;13.906;2024-01-27T22:56:27;8.13;;;2.90;;
8885;SDS011;4479;51.162;13.906;2024-01-27T23:06:29;6.13;;;2.50;;
8885;SDS011;4479;51.162;13.906;2024-01-27T23:16:33;4.60;;;2.40;;
8885;SDS011;4479;51.162;13.906;2024-01-27T23:26:35;6.53;;;2.60;;
8885;SDS011;4479;51.162;13.906;2024-01-27T23:36:39;4.63;;;2.40;;
8885;SDS011;4479;51.162;13.906;2024-01-27T23:46:42;4.83;;;2.43;;
8885;SDS011;4479;51.162;13.906;2024-01-27T23:56:45;4.77;;;2.23;;
